sensor_id;sensor_type;location;lat;lon;timestamp;pressure;altitude;pressure_sealevel;temperature;humidity
9899;BME280;4988;49.238;6.698;2023-06-19T00:00:42;98703.72;;;20.06;100.00
9899;BME280;4988;49.238;6.698;2023-06-19T00:03:07;98700.28;;;20.14;100.00
9899;BME280;4988;49.238;6.698;2023-06-19T00:05:33;98703.13;;;20.22;100.00
9899;BME280;4988;49.238;6.698;2023-06-19T00:07:58;98710.09;;;20.24;100.00
9899;BME280;4988;49.238;6.698;2023-06-19T00:10:24;98724.03;;;20.30;100.00
9899;BME280;4988;49.238;6.698;2023-06-19T00:12:49;98725.75;;;20.11;100.00
9899;BME280;4988;49.238;6.698;2023-06-19T00:15:14;98732.00;;;19.92;100.00
9899;BME280;4988;49.238;6.698;2023-06-19T00:17:40;98735.91;;;19.78;100.00
9899;BME280;4988;49.238;6.698;2023-06-19T00:20:07;98730.50;;;19.78;100.00
9899;BME280;4988;49.238;6.698;2023-06-19T00:22:32;98703.97;;;19.93;100.00
9899;BME280;4988;49.238;6.698;2023-06-19T00:24:58;98694.88;;;20.04;100.00
9899;BME280;4988;49.238;6.698;2023-06-19T00:27:23;98699.44;;;20.13;100.00
9899;BME280;4988;49.238;6.698;2023-06-19T00:29:51;98703.41;;;19.99;100.00
9899;BME280;4988;49.238;6.698;2023-06-19T00:32:16;98691.75;;;20.08;100.00
9899;BME280;4988;49.238;6.698;2023-06-19T00:34:42;98684.38;;;20.11;100.00
9899;BME280;4988;49.238;6.698;2023-06-19T00:37:08;98696.75;;;20.03;100.00
9899;BME280;4988;49.238;6.698;2023-06-19T00:39:35;98701.72;;;20.08;100.00
9899;BME280;4988;49.238;6.698;2023-06-19T00:42:00;98701.41;;;19.91;100.00
9899;BME280;4988;49.238;6.698;2023-06-19T00:44:26;98685.22;;;20.11;100.00
9899;BME280;4988;49.238;6.698;2023-06-19T00:46:57;98689.91;;;20.09;100.00
9899;BME280;4988;49.238;6.698;2023-06-19T00:49:22;98688.06;;;20.19;100.00
9899;BME280;4988;49.238;6.698;2023-06-19T00:51:49;98691.75;;;20.18;100.00
9899;BME280;4988;49.238;6.698;2023-06-19T00:54:16;98705.84;;;20.12;100.00
9899;BME280;4988;49.238;6.698;2023-06-19T00:56:42;98700.59;;;20.11;100.00
9899;BME280;4988;49.238;6.698;2023-06-19T00:59:14;98703.41;;;20.19;100.00
9899;BME280;4988;49.238;6.698;2023-06-19T01:01:41;98701.28;;;20.13;100.00
9899;BME280;4988;49.238;6.698;2023-06-19T01:04:06;98703.97;;;20.13;100.00
9899;BME280;4988;49.238;6.698;2023-06-19T01:09:09;98713.66;;;19.96;100.00
9899;BME280;4988;49.238;6.698;2023-06-19T01:11:54;98705.13;;;20.00;100.00
9899;BME280;4988;49.238;6.698;2023-06-19T01:14:33;98711.38;;;20.01;100.00
9899;BME280;4988;49.238;6.698;2023-06-19T01:17:01;98724.19;;;19.99;100.00
9899;BME280;4988;49.238;6.698;2023-06-19T01:19:27;98720.06;;;19.95;100.00
9899;BME280;4988;49.238;6.698;2023-06-19T01:21:53;98722.88;;;19.93;100.00
9899;BME280;4988;49.238;6.698;2023-06-19T01:24:19;98725.47;;;19.95;100.00
9899;BME280;4988;49.238;6.698;2023-06-19T01:26:44;98723.31;;;19.88;100.00
9899;BME280;4988;49.238;6.698;2023-06-19T01:29:12;98728.00;;;19.86;100.00
9899;BME280;4988;49.238;6.698;2023-06-19T01:34:16;98730.66;;;19.76;100.00
9899;BME280;4988;49.238;6.698;2023-06-19T01:36:42;98733.63;;;19.64;100.00
9899;BME280;4988;49.238;6.698;2023-06-19T01:39:08;98750.09;;;19.60;100.00
9899;BME280;4988;49.238;6.698;2023-06-19T01:41:35;98762.78;;;19.70;100.00
9899;BME280;4988;49.238;6.698;2023-06-19T01:44:01;98758.88;;;19.43;100.00
9899;BME280;4988;49.238;6.698;2023-06-19T01:46:27;98768.06;;;19.31;100.00
9899;BME280;4988;49.238;6.698;2023-06-19T01:48:53;98775.09;;;19.12;100.00
9899;BME280;4988;49.238;6.698;2023-06-19T01:51:19;98772.72;;;18.98;100.00
9899;BME280;4988;49.238;6.698;2023-06-19T01:53:44;98778.38;;;18.94;100.00
9899;BME280;4988;49.238;6.698;2023-06-19T01:56:09;98778.88;;;18.88;100.00
9899;BME280;4988;49.238;6.698;2023-06-19T01:58:35;98775.56;;;18.96;100.00
9899;BME280;4988;49.238;6.698;2023-06-19T02:01:00;98778.25;;;18.96;100.00
9899;BME280;4988;49.238;6.698;2023-06-19T02:03:26;98770.34;;;19.04;100.00
9899;BME280;4988;49.238;6.698;2023-06-19T02:05:51;98766.84;;;19.13;100.00
9899;BME280;4988;49.238;6.698;2023-06-19T02:08:16;98761.03;;;19.18;100.00
9899;BME280;4988;49.238;6.698;2023-06-19T02:10:42;98768.84;;;19.21;100.00
9899;BME280;4988;49.238;6.698;2023-06-19T02:13:07;98770.03;;;19.28;100.00
9899;BME280;4988;49.238;6.698;2023-06-19T02:15:32;98770.66;;;19.42;100.00
9899;BME280;4988;49.238;6.698;2023-06-19T02:17:59;98777.38;;;19.48;100.00
9899;BME280;4988;49.238;6.698;2023-06-19T02:20:25;98780.06;;;19.48;100.00
9899;BME280;4988;49.238;6.698;2023-06-19T02:22:51;98773.53;;;19.50;100.00
9899;BME280;4988;49.238;6.698;2023-06-19T02:25:16;98765.25;;;19.42;100.00
9899;BME280;4988;49.238;6.698;2023-06-19T02:27:42;98760.69;;;19.42;100.00
9899;BME280;4988;49.238;6.698;2023-06-19T02:30:07;98761.41;;;19.44;100.00
9899;BME280;4988;49.238;6.698;2023-06-19T02:32:33;98757.19;;;19.52;100.00
9899;BME280;4988;49.238;6.698;2023-06-19T02:34:58;98772.25;;;19.54;100.00
9899;BME280;4988;49.238;6.698;2023-06-19T02:37:23;98764.16;;;19.54;100.00
9899;BME280;4988;49.238;6.698;2023-06-19T02:39:49;98776.69;;;19.65;100.00
9899;BME280;4988;49.238;6.698;2023-06-19T02:42:14;98779.44;;;19.75;100.00
9899;BME280;4988;49.238;6.698;2023-06-19T02:44:40;98790.59;;;19.60;100.00
9899;BME280;4988;49.238;6.698;2023-06-19T02:47:05;98786.88;;;19.52;100.00
9899;BME280;4988;49.238;6.698;2023-06-19T02:49:31;98787.47;;;19.55;100.00
9899;BME280;4988;49.238;6.698;2023-06-19T02:51:56;98792.84;;;19.45;100.00
9899;BME280;4988;49.238;6.698;2023-06-19T02:54:21;98792.34;;;19.31;100.00
9899;BME280;4988;49.238;6.698;2023-06-19T02:56:47;98786.00;;;19.41;100.00
9899;BME280;4988;49.238;6.698;2023-06-19T02:59:13;98798.66;;;19.51;100.00
9899;BME280;4988;49.238;6.698;2023-06-19T03:01:38;98790.88;;;19.48;100.00
9899;BME280;4988;49.238;6.698;2023-06-19T03:04:03;98798.53;;;19.52;100.00
9899;BME280;4988;49.238;6.698;2023-06-19T03:06:29;98793.13;;;19.52;100.00
9899;BME280;4988;49.238;6.698;2023-06-19T03:08:54;98793.09;;;19.42;100.00
9899;BME280;4988;49.238;6.698;2023-06-19T03:11:20;98804.31;;;19.38;100.00
9899;BME280;4988;49.238;6.698;2023-06-19T03:13:53;98800.97;;;19.24;100.00
9899;BME280;4988;49.238;6.698;2023-06-19T03:16:20;98805.25;;;19.27;100.00
9899;BME280;4988;49.238;6.698;2023-06-19T03:18:45;98802.03;;;19.33;100.00
9899;BME280;4988;49.238;6.698;2023-06-19T03:21:14;98807.56;;;19.32;100.00
9899;BME280;4988;49.238;6.698;2023-06-19T03:23:40;98803.84;;;19.33;100.00
9899;BME280;4988;49.238;6.698;2023-06-19T03:26:09;98808.69;;;19.39;100.00
9899;BME280;4988;49.238;6.698;2023-06-19T03:28:35;98808.44;;;19.42;100.00
9899;BME280;4988;49.238;6.698;2023-06-19T03:31:01;98816.53;;;19.42;100.00
9899;BME280;4988;49.238;6.698;2023-06-19T03:33:26;98822.38;;;19.47;100.00
9899;BME280;4988;49.238;6.698;2023-06-19T03:35:51;98826.75;;;19.38;100.00
9899;BME280;4988;49.238;6.698;2023-06-19T03:38:17;98822.56;;;19.24;100.00
9899;BME280;4988;49.238;6.698;2023-06-19T03:40:42;98829.50;;;19.17;100.00
9899;BME280;4988;49.238;6.698;2023-06-19T03:43:07;98826.50;;;19.20;100.00
9899;BME280;4988;49.238;6.698;2023-06-19T03:45:33;98834.22;;;19.25;100.00
9899;BME280;4988;49.238;6.698;2023-06-19T03:47:58;98837.69;;;19.37;100.00
9899;BME280;4988;49.238;6.698;2023-06-19T03:50:24;98836.41;;;19.41;100.00
9899;BME280;4988;49.238;6.698;2023-06-19T03:52:49;98850.38;;;19.46;100.00
9899;BME280;4988;49.238;6.698;2023-06-19T03:55:15;98833.72;;;19.41;100.00
9899;BME280;4988;49.238;6.698;2023-06-19T03:57:40;98823.81;;;19.41;100.00
9899;BME280;4988;49.238;6.698;2023-06-19T04:00:06;98825.66;;;19.51;100.00
9899;BME280;4988;49.238;6.698;2023-06-19T04:02:36;98814.88;;;19.51;100.00
9899;BME280;4988;49.238;6.698;2023-06-19T04:05:02;98822.13;;;19.50;100.00
9899;BME280;4988;49.238;6.698;2023-06-19T04:07:27;98826.34;;;19.43;100.00
9899;BME280;4988;49.238;6.698;2023-06-19T04:09:53;98849.13;;;19.50;100.00
9899;BME280;4988;49.238;6.698;2023-06-19T04:12:18;98850.25;;;19.48;100.00
9899;BME280;4988;49.238;6.698;2023-06-19T04:14:44;98835.19;;;19.45;100.00
9899;BME280;4988;49.238;6.698;2023-06-19T04:17:09;98850.78;;;19.41;100.00
9899;BME280;4988;49.238;6.698;2023-06-19T04:19:34;98846.09;;;19.43;100.00
9899;BME280;4988;49.238;6.698;2023-06-19T04:22:00;98843.78;;;19.39;100.00
9899;BME280;4988;49.238;6.698;2023-06-19T04:24:25;98846.97;;;19.44;100.00
9899;BME280;4988;49.238;6.698;2023-06-19T04:26:50;98847.66;;;19.46;100.00
9899;BME280;4988;49.238;6.698;2023-06-19T04:29:16;98845.44;;;19.51;100.00
9899;BME280;4988;49.238;6.698;2023-06-19T04:31:45;98844.75;;;19.59;100.00
9899;BME280;4988;49.238;6.698;2023-06-19T04:34:16;98848.84;;;19.53;100.00
9899;BME280;4988;49.238;6.698;2023-06-19T04:36:41;98851.97;;;19.58;100.00
9899;BME280;4988;49.238;6.698;2023-06-19T04:39:07;98855.41;;;19.60;100.00
9899;BME280;4988;49.238;6.698;2023-06-19T04:41:32;98870.81;;;19.70;100.00
9899;BME280;4988;49.238;6.698;2023-06-19T04:43:57;98860.38;;;19.55;100.00
9899;BME280;4988;49.238;6.698;2023-06-19T04:46:23;98860.47;;;19.44;100.00
9899;BME280;4988;49.238;6.698;2023-06-19T04:48:48;98862.91;;;19.26;100.00
9899;BME280;4988;49.238;6.698;2023-06-19T04:51:19;98859.22;;;19.27;100.00
9899;BME280;4988;49.238;6.698;2023-06-19T04:53:46;98859.19;;;19.17;100.00
9899;BME280;4988;49.238;6.698;2023-06-19T04:56:11;98862.31;;;19.22;100.00
9899;BME280;4988;49.238;6.698;2023-06-19T04:58:37;98859.81;;;19.31;100.00
9899;BME280;4988;49.238;6.698;2023-06-19T05:01:09;98860.41;;;19.34;100.00
9899;BME280;4988;49.238;6.698;2023-06-19T05:03:35;98854.09;;;19.45;100.00
9899;BME280;4988;49.238;6.698;2023-06-19T05:06:00;98859.72;;;19.73;100.00
9899;BME280;4988;49.238;6.698;2023-06-19T05:08:26;98866.22;;;19.60;100.00
9899;BME280;4988;49.238;6.698;2023-06-19T05:10:51;98861.69;;;19.71;100.00
9899;BME280;4988;49.238;6.698;2023-06-19T05:13:16;98856.22;;;19.82;100.00
9899;BME280;4988;49.238;6.698;2023-06-19T05:15:43;98866.44;;;19.79;100.00
9899;BME280;4988;49.238;6.698;2023-06-19T05:18:08;98859.81;;;19.92;99.81
9899;BME280;4988;49.238;6.698;2023-06-19T05:20:34;98859.28;;;19.99;100.00
9899;BME280;4988;49.238;6.698;2023-06-19T05:22:59;98861.00;;;20.00;100.00
9899;BME280;4988;49.238;6.698;2023-06-19T05:25:27;98851.47;;;19.96;98.95
9899;BME280;4988;49.238;6.698;2023-06-19T05:27:52;98859.81;;;19.92;99.42
9899;BME280;4988;49.238;6.698;2023-06-19T05:30:18;98863.81;;;19.88;99.41
9899;BME280;4988;49.238;6.698;2023-06-19T05:32:43;98866.06;;;19.93;99.45
9899;BME280;4988;49.238;6.698;2023-06-19T05:35:08;98870.91;;;19.99;99.19
9899;BME280;4988;49.238;6.698;2023-06-19T05:37:34;98865.13;;;20.14;98.52
9899;BME280;4988;49.238;6.698;2023-06-19T05:39:59;98870.28;;;20.17;96.68
9899;BME280;4988;49.238;6.698;2023-06-19T05:42:25;98875.50;;;20.08;96.78
9899;BME280;4988;49.238;6.698;2023-06-19T05:44:50;98878.63;;;20.04;97.59
9899;BME280;4988;49.238;6.698;2023-06-19T05:47:15;98881.91;;;19.76;99.35
9899;BME280;4988;49.238;6.698;2023-06-19T05:49:42;98878.97;;;19.80;97.58
9899;BME280;4988;49.238;6.698;2023-06-19T05:52:07;98878.59;;;19.63;98.30
9899;BME280;4988;49.238;6.698;2023-06-19T05:54:33;98880.13;;;19.56;98.83
9899;BME280;4988;49.238;6.698;2023-06-19T05:56:58;98874.94;;;19.43;98.91
9899;BME280;4988;49.238;6.698;2023-06-19T05:59:23;98889.50;;;19.31;100.00
9899;BME280;4988;49.238;6.698;2023-06-19T06:01:49;98883.84;;;19.34;100.00
9899;BME280;4988;49.238;6.698;2023-06-19T06:04:16;98882.75;;;19.46;98.25
9899;BME280;4988;49.238;6.698;2023-06-19T06:06:41;98886.06;;;19.50;98.24
9899;BME280;4988;49.238;6.698;2023-06-19T06:09:06;98885.41;;;19.57;98.36
9899;BME280;4988;49.238;6.698;2023-06-19T06:11:35;98882.22;;;19.52;97.36
9899;BME280;4988;49.238;6.698;2023-06-19T06:14:01;98880.94;;;19.77;96.90
9899;BME280;4988;49.238;6.698;2023-06-19T06:16:26;98883.78;;;19.76;95.59
9899;BME280;4988;49.238;6.698;2023-06-19T06:18:52;98884.31;;;19.70;95.79
9899;BME280;4988;49.238;6.698;2023-06-19T06:21:17;98896.50;;;19.64;96.15
9899;BME280;4988;49.238;6.698;2023-06-19T06:23:42;98896.09;;;19.69;96.66
9899;BME280;4988;49.238;6.698;2023-06-19T06:26:10;98891.34;;;19.82;94.62
9899;BME280;4988;49.238;6.698;2023-06-19T06:28:35;98900.78;;;19.67;95.56
9899;BME280;4988;49.238;6.698;2023-06-19T06:31:00;98900.81;;;19.76;95.11
9899;BME280;4988;49.238;6.698;2023-06-19T06:33:26;98903.50;;;19.98;95.31
9899;BME280;4988;49.238;6.698;2023-06-19T06:35:51;98901.56;;;20.09;92.92
9899;BME280;4988;49.238;6.698;2023-06-19T06:38:17;98908.25;;;20.25;92.68
9899;BME280;4988;49.238;6.698;2023-06-19T06:40:42;98908.84;;;20.29;92.26
9899;BME280;4988;49.238;6.698;2023-06-19T06:43:08;98911.72;;;20.47;93.19
9899;BME280;4988;49.238;6.698;2023-06-19T06:45:34;98912.53;;;20.78;92.66
9899;BME280;4988;49.238;6.698;2023-06-19T06:47:59;98917.94;;;20.88;89.19
9899;BME280;4988;49.238;6.698;2023-06-19T06:50:24;98918.19;;;21.14;89.27
9899;BME280;4988;49.238;6.698;2023-06-19T06:52:50;98929.84;;;21.34;86.51
9899;BME280;4988;49.238;6.698;2023-06-19T06:55:15;98948.41;;;21.00;86.90
9899;BME280;4988;49.238;6.698;2023-06-19T06:57:40;98942.97;;;20.80;87.51
9899;BME280;4988;49.238;6.698;2023-06-19T07:00:06;98948.22;;;20.62;88.97
9899;BME280;4988;49.238;6.698;2023-06-19T07:02:34;98951.50;;;20.66;89.32
9899;BME280;4988;49.238;6.698;2023-06-19T07:05:00;98961.59;;;20.64;89.49
9899;BME280;4988;49.238;6.698;2023-06-19T07:07:25;98964.13;;;20.65;89.97
9899;BME280;4988;49.238;6.698;2023-06-19T07:09:51;98970.44;;;20.85;90.41
9899;BME280;4988;49.238;6.698;2023-06-19T07:12:16;98977.44;;;21.08;88.41
9899;BME280;4988;49.238;6.698;2023-06-19T07:14:41;98983.31;;;21.23;88.36
9899;BME280;4988;49.238;6.698;2023-06-19T07:17:06;98976.59;;;21.56;87.24
9899;BME280;4988;49.238;6.698;2023-06-19T07:19:32;98979.44;;;21.74;85.48
9899;BME280;4988;49.238;6.698;2023-06-19T07:21:58;98981.38;;;21.92;84.42
9899;BME280;4988;49.238;6.698;2023-06-19T07:24:24;98979.25;;;22.13;82.15
9899;BME280;4988;49.238;6.698;2023-06-19T07:26:49;98976.22;;;22.26;82.55
9899;BME280;4988;49.238;6.698;2023-06-19T07:29:14;98975.41;;;22.54;80.84
9899;BME280;4988;49.238;6.698;2023-06-19T07:31:40;98980.97;;;22.52;79.61
9899;BME280;4988;49.238;6.698;2023-06-19T07:34:07;98978.47;;;22.41;78.96
9899;BME280;4988;49.238;6.698;2023-06-19T07:36:33;98981.22;;;22.31;78.28
9899;BME280;4988;49.238;6.698;2023-06-19T07:38:58;98988.34;;;21.94;80.75
9899;BME280;4988;49.238;6.698;2023-06-19T07:41:23;98988.22;;;21.86;81.53
9899;BME280;4988;49.238;6.698;2023-06-19T07:43:49;98988.22;;;21.86;82.04
9899;BME280;4988;49.238;6.698;2023-06-19T07:46:15;98984.06;;;21.92;81.67
9899;BME280;4988;49.238;6.698;2023-06-19T07:48:40;98983.94;;;21.83;82.08
9899;BME280;4988;49.238;6.698;2023-06-19T07:51:06;98988.50;;;21.93;83.07
9899;BME280;4988;49.238;6.698;2023-06-19T07:53:31;98993.19;;;21.91;81.18
9899;BME280;4988;49.238;6.698;2023-06-19T07:55:56;98994.66;;;21.75;81.78
9899;BME280;4988;49.238;6.698;2023-06-19T07:58:22;98988.50;;;21.93;80.08
9899;BME280;4988;49.238;6.698;2023-06-19T08:00:47;98985.47;;;21.96;79.75
9899;BME280;4988;49.238;6.698;2023-06-19T08:03:12;98978.47;;;22.03;78.69
9899;BME280;4988;49.238;6.698;2023-06-19T08:05:38;98976.59;;;22.04;79.46
9899;BME280;4988;49.238;6.698;2023-06-19T08:08:03;98975.81;;;21.83;80.80
9899;BME280;4988;49.238;6.698;2023-06-19T08:10:29;98978.09;;;21.88;81.39
9899;BME280;4988;49.238;6.698;2023-06-19T08:12:54;98975.00;;;22.11;81.64
9899;BME280;4988;49.238;6.698;2023-06-19T08:15:19;98977.00;;;22.46;78.71
9899;BME280;4988;49.238;6.698;2023-06-19T08:17:45;98972.06;;;22.60;78.32
9899;BME280;4988;49.238;6.698;2023-06-19T08:20:10;98976.84;;;22.76;77.59
9899;BME280;4988;49.238;6.698;2023-06-19T08:22:36;98978.63;;;23.03;77.48
9899;BME280;4988;49.238;6.698;2023-06-19T08:25:02;98984.81;;;23.23;73.30
9899;BME280;4988;49.238;6.698;2023-06-19T08:27:28;98982.81;;;23.16;74.05
9899;BME280;4988;49.238;6.698;2023-06-19T08:29:53;98982.59;;;22.91;74.97
9899;BME280;4988;49.238;6.698;2023-06-19T08:32:19;98990.28;;;22.95;73.43
9899;BME280;4988;49.238;6.698;2023-06-19T08:34:44;98989.91;;;22.62;75.99
9899;BME280;4988;49.238;6.698;2023-06-19T08:37:09;98993.88;;;22.68;75.25
9899;BME280;4988;49.238;6.698;2023-06-19T08:39:35;98988.63;;;22.85;76.04
9899;BME280;4988;49.238;6.698;2023-06-19T08:42:06;98986.72;;;22.95;74.57
9899;BME280;4988;49.238;6.698;2023-06-19T08:44:33;98992.91;;;23.05;74.59
9899;BME280;4988;49.238;6.698;2023-06-19T08:46:59;98985.84;;;23.12;73.71
9899;BME280;4988;49.238;6.698;2023-06-19T08:49:24;98990.44;;;22.94;74.09
9899;BME280;4988;49.238;6.698;2023-06-19T08:51:49;98980.75;;;22.91;74.16
9899;BME280;4988;49.238;6.698;2023-06-19T08:54:15;98984.97;;;23.12;74.75
9899;BME280;4988;49.238;6.698;2023-06-19T08:56:40;98996.19;;;23.45;73.60
9899;BME280;4988;49.238;6.698;2023-06-19T08:59:16;98985.81;;;23.67;72.46
9899;BME280;4988;49.238;6.698;2023-06-19T09:01:50;98981.09;;;23.95;70.79
9899;BME280;4988;49.238;6.698;2023-06-19T09:04:32;98979.00;;;24.15;71.00
9899;BME280;4988;49.238;6.698;2023-06-19T09:07:02;98976.22;;;24.07;69.67
9899;BME280;4988;49.238;6.698;2023-06-19T09:09:28;98985.03;;;24.01;67.54
9899;BME280;4988;49.238;6.698;2023-06-19T09:12:05;98977.22;;;23.80;68.54
9899;BME280;4988;49.238;6.698;2023-06-19T09:14:35;98979.84;;;23.63;69.04
9899;BME280;4988;49.238;6.698;2023-06-19T09:17:02;98979.22;;;23.69;69.22
9899;BME280;4988;49.238;6.698;2023-06-19T09:19:27;98985.19;;;23.99;68.47
9899;BME280;4988;49.238;6.698;2023-06-19T09:21:53;98971.19;;;24.20;68.37
9899;BME280;4988;49.238;6.698;2023-06-19T09:24:18;98971.59;;;24.34;66.92
9899;BME280;4988;49.238;6.698;2023-06-19T09:26:44;98972.06;;;24.21;65.98
9899;BME280;4988;49.238;6.698;2023-06-19T09:29:10;98969.63;;;24.09;66.26
9899;BME280;4988;49.238;6.698;2023-06-19T09:31:36;98977.19;;;23.71;66.72
9899;BME280;4988;49.238;6.698;2023-06-19T09:34:03;98974.88;;;23.85;67.15
9899;BME280;4988;49.238;6.698;2023-06-19T09:36:31;98965.81;;;23.94;66.26
9899;BME280;4988;49.238;6.698;2023-06-19T09:38:57;98958.53;;;24.37;64.96
9899;BME280;4988;49.238;6.698;2023-06-19T09:41:25;98961.28;;;24.46;63.74
9899;BME280;4988;49.238;6.698;2023-06-19T09:43:54;98941.59;;;24.60;63.83
9899;BME280;4988;49.238;6.698;2023-06-19T09:46:29;98943.19;;;24.79;63.25
9899;BME280;4988;49.238;6.698;2023-06-19T09:49:00;98938.97;;;25.10;61.98
9899;BME280;4988;49.238;6.698;2023-06-19T09:51:37;98936.06;;;25.28;60.69
9899;BME280;4988;49.238;6.698;2023-06-19T09:54:06;98927.41;;;25.16;60.87
9899;BME280;4988;49.238;6.698;2023-06-19T09:56:32;98925.16;;;25.28;63.61
9899;BME280;4988;49.238;6.698;2023-06-19T09:58:59;98927.06;;;25.27;60.69
9899;BME280;4988;49.238;6.698;2023-06-19T10:01:27;98929.78;;;25.27;61.36
9899;BME280;4988;49.238;6.698;2023-06-19T10:04:03;98930.81;;;25.51;60.81
9899;BME280;4988;49.238;6.698;2023-06-19T10:06:29;98923.66;;;25.50;59.83
9899;BME280;4988;49.238;6.698;2023-06-19T10:08:55;98932.50;;;25.52;60.75
9899;BME280;4988;49.238;6.698;2023-06-19T10:11:20;98930.47;;;25.37;59.40
9899;BME280;4988;49.238;6.698;2023-06-19T10:13:45;98922.97;;;25.23;59.73
9899;BME280;4988;49.238;6.698;2023-06-19T10:16:23;98929.44;;;25.30;59.33
9899;BME280;4988;49.238;6.698;2023-06-19T10:18:50;98924.50;;;25.50;59.43
9899;BME280;4988;49.238;6.698;2023-06-19T10:21:20;98926.00;;;25.69;57.90
9899;BME280;4988;49.238;6.698;2023-06-19T10:23:57;98928.38;;;25.81;57.61
9899;BME280;4988;49.238;6.698;2023-06-19T10:26:33;98924.69;;;26.05;58.16
9899;BME280;4988;49.238;6.698;2023-06-19T10:28:59;98925.97;;;25.94;56.72
9899;BME280;4988;49.238;6.698;2023-06-19T10:31:24;98925.03;;;25.54;58.30
9899;BME280;4988;49.238;6.698;2023-06-19T10:33:50;98922.16;;;25.39;58.56
9899;BME280;4988;49.238;6.698;2023-06-19T10:36:20;98920.56;;;25.61;57.76
9899;BME280;4988;49.238;6.698;2023-06-19T10:38:47;98916.09;;;25.85;56.71
9899;BME280;4988;49.238;6.698;2023-06-19T10:41:21;98907.31;;;26.14;56.60
9899;BME280;4988;49.238;6.698;2023-06-19T10:44:00;98902.94;;;26.37;56.52
9899;BME280;4988;49.238;6.698;2023-06-19T10:46:32;98911.66;;;26.32;55.67
9899;BME280;4988;49.238;6.698;2023-06-19T10:48:59;98907.94;;;26.25;56.62
9899;BME280;4988;49.238;6.698;2023-06-19T10:51:29;98902.75;;;25.98;56.30
9899;BME280;4988;49.238;6.698;2023-06-19T10:53:55;98911.94;;;25.97;56.40
9899;BME280;4988;49.238;6.698;2023-06-19T10:56:21;98900.06;;;25.82;57.12
9899;BME280;4988;49.238;6.698;2023-06-19T10:58:47;98896.16;;;25.84;57.61
9899;BME280;4988;49.238;6.698;2023-06-19T11:01:13;98888.25;;;25.98;56.86
9899;BME280;4988;49.238;6.698;2023-06-19T11:03:38;98877.25;;;25.75;56.70
9899;BME280;4988;49.238;6.698;2023-06-19T11:06:04;98883.84;;;25.89;57.03
9899;BME280;4988;49.238;6.698;2023-06-19T11:08:29;98887.06;;;26.00;55.66
9899;BME280;4988;49.238;6.698;2023-06-19T11:10:55;98889.78;;;26.00;56.54
9899;BME280;4988;49.238;6.698;2023-06-19T11:13:21;98879.84;;;26.16;56.05
9899;BME280;4988;49.238;6.698;2023-06-19T11:15:50;98874.78;;;26.36;54.47
9899;BME280;4988;49.238;6.698;2023-06-19T11:18:16;98865.97;;;26.57;54.33
9899;BME280;4988;49.238;6.698;2023-06-19T11:20:50;98880.03;;;26.69;54.30
9899;BME280;4988;49.238;6.698;2023-06-19T11:23:17;98876.25;;;26.47;54.41
9899;BME280;4988;49.238;6.698;2023-06-19T11:25:49;98874.09;;;26.65;54.57
9899;BME280;4988;49.238;6.698;2023-06-19T11:28:16;98875.06;;;26.73;54.95
9899;BME280;4988;49.238;6.698;2023-06-19T11:30:48;98875.50;;;26.61;54.66
9899;BME280;4988;49.238;6.698;2023-06-19T11:33:20;98876.03;;;26.88;54.70
9899;BME280;4988;49.238;6.698;2023-06-19T11:38:22;98874.88;;;27.21;53.91
9899;BME280;4988;49.238;6.698;2023-06-19T11:40:48;98876.03;;;27.26;52.70
9899;BME280;4988;49.238;6.698;2023-06-19T11:43:27;98885.31;;;27.17;53.14
9899;BME280;4988;49.238;6.698;2023-06-19T11:45:53;98890.66;;;26.95;53.89
9899;BME280;4988;49.238;6.698;2023-06-19T11:48:23;98890.47;;;26.65;53.86
9899;BME280;4988;49.238;6.698;2023-06-19T11:50:49;98891.91;;;26.53;54.27
9899;BME280;4988;49.238;6.698;2023-06-19T11:53:14;98886.06;;;26.33;55.29
9899;BME280;4988;49.238;6.698;2023-06-19T11:55:39;98893.34;;;26.41;55.43
9899;BME280;4988;49.238;6.698;2023-06-19T11:58:05;98889.06;;;26.46;55.18
9899;BME280;4988;49.238;6.698;2023-06-19T12:00:31;98894.03;;;26.43;54.45
9899;BME280;4988;49.238;6.698;2023-06-19T12:02:56;98893.72;;;26.38;55.07
9899;BME280;4988;49.238;6.698;2023-06-19T12:05:23;98886.13;;;26.56;54.95
9899;BME280;4988;49.238;6.698;2023-06-19T12:07:48;98891.56;;;26.56;54.31
9899;BME280;4988;49.238;6.698;2023-06-19T12:10:14;98891.69;;;26.63;55.10
9899;BME280;4988;49.238;6.698;2023-06-19T12:12:39;98884.56;;;26.85;54.01
9899;BME280;4988;49.238;6.698;2023-06-19T12:15:05;98886.03;;;26.96;53.60
9899;BME280;4988;49.238;6.698;2023-06-19T12:17:31;98888.81;;;27.26;52.88
9899;BME280;4988;49.238;6.698;2023-06-19T12:19:56;98882.31;;;27.50;52.05
9899;BME280;4988;49.238;6.698;2023-06-19T12:22:22;98879.38;;;27.67;52.22
9899;BME280;4988;49.238;6.698;2023-06-19T12:24:48;98875.16;;;27.49;52.10
9899;BME280;4988;49.238;6.698;2023-06-19T12:27:13;98867.13;;;27.48;52.48
9899;BME280;4988;49.238;6.698;2023-06-19T12:29:38;98872.81;;;27.61;51.79
9899;BME280;4988;49.238;6.698;2023-06-19T12:34:50;98865.28;;;27.63;51.36
9899;BME280;4988;49.238;6.698;2023-06-19T12:37:19;98861.31;;;27.66;51.83
9899;BME280;4988;49.238;6.698;2023-06-19T12:39:46;98855.72;;;27.74;51.79
9899;BME280;4988;49.238;6.698;2023-06-19T12:42:11;98858.00;;;27.85;52.28
9899;BME280;4988;49.238;6.698;2023-06-19T12:44:40;98847.97;;;27.92;51.36
9899;BME280;4988;49.238;6.698;2023-06-19T12:47:05;98853.53;;;27.99;51.72
9899;BME280;4988;49.238;6.698;2023-06-19T12:49:31;98851.47;;;28.01;52.03
9899;BME280;4988;49.238;6.698;2023-06-19T12:51:57;98854.59;;;27.98;51.97
9899;BME280;4988;49.238;6.698;2023-06-19T12:54:22;98846.00;;;27.86;51.56
9899;BME280;4988;49.238;6.698;2023-06-19T12:56:48;98849.88;;;27.77;52.28
9899;BME280;4988;49.238;6.698;2023-06-19T12:59:13;98849.63;;;27.72;52.47
9899;BME280;4988;49.238;6.698;2023-06-19T13:01:39;98843.00;;;27.81;52.95
9899;BME280;4988;49.238;6.698;2023-06-19T13:04:04;98844.31;;;27.85;52.48
9899;BME280;4988;49.238;6.698;2023-06-19T13:06:29;98842.44;;;27.86;52.87
9899;BME280;4988;49.238;6.698;2023-06-19T13:08:55;98843.72;;;27.90;53.63
9899;BME280;4988;49.238;6.698;2023-06-19T13:11:20;98843.25;;;27.86;53.27
9899;BME280;4988;49.238;6.698;2023-06-19T13:13:45;98844.16;;;27.72;52.67
9899;BME280;4988;49.238;6.698;2023-06-19T13:16:11;98844.78;;;27.44;54.05
9899;BME280;4988;49.238;6.698;2023-06-19T13:18:36;98839.25;;;27.52;55.55
9899;BME280;4988;49.238;6.698;2023-06-19T13:21:05;98836.88;;;27.49;56.70
9899;BME280;4988;49.238;6.698;2023-06-19T13:23:30;98830.00;;;27.53;56.71